Smithwick, South Dakota
Current Conditions -  °F | °C
As of 7:53 AM on Wednesday 22 Oct 2014 (Local Time) from KCDR Reporting Station
Scattered Clouds Scattered Clouds  
Wind Chill: 50°   Ceiling: Unl
Heat Index: 50°   Visibility: 10mi
Dew Point: 34°   Wind: 14mph
Humidity: 54%   Direction: 260°W
Pressure: 30"   Gusts: NA
Location:  43.3°N, 103.22°W
Report Text: KCDR 221353Z AUTO 26012KT 10SM SCT110 10/01 A3000 RMK AO2 SLP148 T01000011
Loading
Personal Weather Stations






























Interactive Weather Map
Tropical Storm Tracking
New forecast layout! Learn more

10-Day Weather Forecast

Advertisements
Track Severe Weather on mobile